sensor_id;sensor_type;location;lat;lon;timestamp;temperature;humidity
64634;DHT22;51043;52.406;9.690;2022-07-04T00:01:42;16.40;99.90
64634;DHT22;51043;52.406;9.690;2022-07-04T00:04:09;16.40;99.90
64634;DHT22;51043;52.406;9.690;2022-07-04T00:06:36;16.40;99.90
64634;DHT22;51043;52.406;9.690;2022-07-04T00:09:03;16.30;99.90
64634;DHT22;51043;52.406;9.690;2022-07-04T00:11:30;16.30;99.90
64634;DHT22;51043;52.406;9.690;2022-07-04T00:13:57;16.30;99.90
64634;DHT22;51043;52.406;9.690;2022-07-04T00:16:23;16.30;99.90
64634;DHT22;51043;52.406;9.690;2022-07-04T00:18:50;16.40;99.90
64634;DHT22;51043;52.406;9.690;2022-07-04T00:21:17;16.40;99.90
64634;DHT22;51043;52.406;9.690;2022-07-04T00:23:44;16.40;99.90
64634;DHT22;51043;52.406;9.690;2022-07-04T00:26:11;16.40;99.90
64634;DHT22;51043;52.406;9.690;2022-07-04T00:28:37;16.30;99.90
64634;DHT22;51043;52.406;9.690;2022-07-04T00:31:04;16.30;99.90
64634;DHT22;51043;52.406;9.690;2022-07-04T00:33:31;16.20;99.90
64634;DHT22;51043;52.406;9.690;2022-07-04T00:35:58;16.20;99.90
64634;DHT22;51043;52.406;9.690;2022-07-04T00:38:25;16.10;99.90
64634;DHT22;51043;52.406;9.690;2022-07-04T00:40:52;16.10;99.90
64634;DHT22;51043;52.406;9.690;2022-07-04T00:43:24;16.00;99.90
64634;DHT22;51043;52.406;9.690;2022-07-04T00:45:51;15.90;99.90
64634;DHT22;51043;52.406;9.690;2022-07-04T00:48:18;15.80;99.90
64634;DHT22;51043;52.406;9.690;2022-07-04T00:50:46;15.80;99.90
64634;DHT22;51043;52.406;9.690;2022-07-04T00:53:21;15.70;99.90
64634;DHT22;51043;52.406;9.690;2022-07-04T00:55:50;15.60;99.90
64634;DHT22;51043;52.406;9.690;2022-07-04T00:58:22;15.60;99.90
64634;DHT22;51043;52.406;9.690;2022-07-04T01:00:49;15.60;99.90
64634;DHT22;51043;52.406;9.690;2022-07-04T01:03:16;15.50;99.90
64634;DHT22;51043;52.406;9.690;2022-07-04T01:05:44;15.40;99.90
64634;DHT22;51043;52.406;9.690;2022-07-04T01:08:11;15.50;99.90
64634;DHT22;51043;52.406;9.690;2022-07-04T01:10:38;15.60;99.90
64634;DHT22;51043;52.406;9.690;2022-07-04T01:13:05;15.50;99.90
64634;DHT22;51043;52.406;9.690;2022-07-04T01:15:32;15.60;99.90
64634;DHT22;51043;52.406;9.690;2022-07-04T01:17:59;15.40;99.90
64634;DHT22;51043;52.406;9.690;2022-07-04T01:20:26;15.40;99.90
64634;DHT22;51043;52.406;9.690;2022-07-04T01:22:53;15.20;99.90
64634;DHT22;51043;52.406;9.690;2022-07-04T01:25:20;15.00;99.90
64634;DHT22;51043;52.406;9.690;2022-07-04T01:27:47;14.90;99.90
64634;DHT22;51043;52.406;9.690;2022-07-04T01:30:14;14.80;99.90
64634;DHT22;51043;52.406;9.690;2022-07-04T01:32:41;14.80;99.90
64634;DHT22;51043;52.406;9.690;2022-07-04T01:35:08;15.00;99.90
64634;DHT22;51043;52.406;9.690;2022-07-04T01:37:37;15.10;99.90
64634;DHT22;51043;52.406;9.690;2022-07-04T01:40:04;15.00;99.90
64634;DHT22;51043;52.406;9.690;2022-07-04T01:42:31;15.10;99.90
64634;DHT22;51043;52.406;9.690;2022-07-04T01:44:58;15.10;99.90
64634;DHT22;51043;52.406;9.690;2022-07-04T01:47:25;15.10;99.90
64634;DHT22;51043;52.406;9.690;2022-07-04T01:49:52;15.10;99.90
64634;DHT22;51043;52.406;9.690;2022-07-04T01:52:19;14.90;99.90
64634;DHT22;51043;52.406;9.690;2022-07-04T01:54:46;15.00;99.90
64634;DHT22;51043;52.406;9.690;2022-07-04T01:57:13;14.90;99.90
64634;DHT22;51043;52.406;9.690;2022-07-04T01:59:40;14.90;99.90
64634;DHT22;51043;52.406;9.690;2022-07-04T02:02:26;14.80;99.90
64634;DHT22;51043;52.406;9.690;2022-07-04T02:04:53;14.70;99.90
64634;DHT22;51043;52.406;9.690;2022-07-04T02:07:20;14.70;99.90
64634;DHT22;51043;52.406;9.690;2022-07-04T02:09:48;14.80;99.90
64634;DHT22;51043;52.406;9.690;2022-07-04T02:12:15;14.80;99.90
64634;DHT22;51043;52.406;9.690;2022-07-04T02:15:00;14.80;99.90
64634;DHT22;51043;52.406;9.690;2022-07-04T02:17:27;14.60;99.90
64634;DHT22;51043;52.406;9.690;2022-07-04T02:19:54;14.50;99.90
64634;DHT22;51043;52.406;9.690;2022-07-04T02:22:21;14.40;99.90
64634;DHT22;51043;52.406;9.690;2022-07-04T02:24:48;14.40;99.90
64634;DHT22;51043;52.406;9.690;2022-07-04T02:27:15;14.30;99.90
64634;DHT22;51043;52.406;9.690;2022-07-04T02:29:42;14.20;99.90
64634;DHT22;51043;52.406;9.690;2022-07-04T02:32:09;14.10;99.90
64634;DHT22;51043;52.406;9.690;2022-07-04T02:34:36;14.10;99.90
64634;DHT22;51043;52.406;9.690;2022-07-04T02:37:03;14.10;99.90
64634;DHT22;51043;52.406;9.690;2022-07-04T02:39:30;14.20;99.90
64634;DHT22;51043;52.406;9.690;2022-07-04T02:41:57;14.10;99.90
64634;DHT22;51043;52.406;9.690;2022-07-04T02:44:24;14.10;99.90
64634;DHT22;51043;52.406;9.690;2022-07-04T02:46:51;14.00;99.90
64634;DHT22;51043;52.406;9.690;2022-07-04T02:49:18;14.00;99.90
64634;DHT22;51043;52.406;9.690;2022-07-04T02:51:45;14.00;99.90
64634;DHT22;51043;52.406;9.690;2022-07-04T02:54:12;14.00;99.90
64634;DHT22;51043;52.406;9.690;2022-07-04T02:56:39;14.00;99.90
64634;DHT22;51043;52.406;9.690;2022-07-04T02:59:05;14.10;99.90
64634;DHT22;51043;52.406;9.690;2022-07-04T03:01:32;14.20;99.90
64634;DHT22;51043;52.406;9.690;2022-07-04T03:03:59;14.30;99.90
64634;DHT22;51043;52.406;9.690;2022-07-04T03:06:26;14.30;99.90
64634;DHT22;51043;52.406;9.690;2022-07-04T03:08:53;14.30;99.90
64634;DHT22;51043;52.406;9.690;2022-07-04T03:11:20;14.40;99.90
64634;DHT22;51043;52.406;9.690;2022-07-04T03:13:47;14.30;99.90
64634;DHT22;51043;52.406;9.690;2022-07-04T03:16:14;14.20;99.90
64634;DHT22;51043;52.406;9.690;2022-07-04T03:18:41;14.10;99.90
64634;DHT22;51043;52.406;9.690;2022-07-04T03:21:07;14.10;99.90
64634;DHT22;51043;52.406;9.690;2022-07-04T03:23:38;14.10;99.90
64634;DHT22;51043;52.406;9.690;2022-07-04T03:26:04;14.20;99.90
64634;DHT22;51043;52.406;9.690;2022-07-04T03:28:31;14.20;99.90
64634;DHT22;51043;52.406;9.690;2022-07-04T03:30:58;14.20;99.90
64634;DHT22;51043;52.406;9.690;2022-07-04T03:33:25;14.20;99.90
64634;DHT22;51043;52.406;9.690;2022-07-04T03:35:52;14.30;99.90
64634;DHT22;51043;52.406;9.690;2022-07-04T03:38:19;14.50;99.90
64634;DHT22;51043;52.406;9.690;2022-07-04T03:40:46;14.60;99.90
64634;DHT22;51043;52.406;9.690;2022-07-04T03:43:13;14.60;99.90
64634;DHT22;51043;52.406;9.690;2022-07-04T03:45:40;14.70;99.90
64634;DHT22;51043;52.406;9.690;2022-07-04T03:48:06;14.70;99.90
64634;DHT22;51043;52.406;9.690;2022-07-04T03:50:33;14.60;99.90
64634;DHT22;51043;52.406;9.690;2022-07-04T03:53:00;14.50;99.90
64634;DHT22;51043;52.406;9.690;2022-07-04T03:55:27;14.60;99.90
64634;DHT22;51043;52.406;9.690;2022-07-04T03:57:54;14.70;99.90
64634;DHT22;51043;52.406;9.690;2022-07-04T04:00:21;14.80;99.90
64634;DHT22;51043;52.406;9.690;2022-07-04T04:02:47;14.90;99.90
64634;DHT22;51043;52.406;9.690;2022-07-04T04:05:14;14.90;99.90
64634;DHT22;51043;52.406;9.690;2022-07-04T04:07:58;15.10;99.90
64634;DHT22;51043;52.406;9.690;2022-07-04T04:10:26;15.20;99.90
64634;DHT22;51043;52.406;9.690;2022-07-04T04:12:53;15.30;99.90
64634;DHT22;51043;52.406;9.690;2022-07-04T04:15:20;15.40;99.90
64634;DHT22;51043;52.406;9.690;2022-07-04T04:17:47;15.50;99.90
64634;DHT22;51043;52.406;9.690;2022-07-04T04:20:14;15.50;99.90
64634;DHT22;51043;52.406;9.690;2022-07-04T04:22:41;15.70;99.90
64634;DHT22;51043;52.406;9.690;2022-07-04T04:25:08;15.80;99.90
64634;DHT22;51043;52.406;9.690;2022-07-04T04:27:35;15.80;99.90
64634;DHT22;51043;52.406;9.690;2022-07-04T04:30:03;15.80;99.90
64634;DHT22;51043;52.406;9.690;2022-07-04T04:32:30;15.90;99.90
64634;DHT22;51043;52.406;9.690;2022-07-04T04:34:58;16.00;99.90
64634;DHT22;51043;52.406;9.690;2022-07-04T04:37:25;16.10;99.90
64634;DHT22;51043;52.406;9.690;2022-07-04T04:39:52;16.20;99.90
64634;DHT22;51043;52.406;9.690;2022-07-04T04:42:19;16.20;99.90
64634;DHT22;51043;52.406;9.690;2022-07-04T04:44:46;16.30;99.90
64634;DHT22;51043;52.406;9.690;2022-07-04T04:47:13;16.40;99.90
64634;DHT22;51043;52.406;9.690;2022-07-04T04:49:40;16.50;99.90
64634;DHT22;51043;52.406;9.690;2022-07-04T04:52:07;16.60;99.90
64634;DHT22;51043;52.406;9.690;2022-07-04T04:54:34;16.60;99.90
64634;DHT22;51043;52.406;9.690;2022-07-04T04:57:01;16.70;99.90
64634;DHT22;51043;52.406;9.690;2022-07-04T04:59:28;16.80;99.90
64634;DHT22;51043;52.406;9.690;2022-07-04T05:01:59;16.90;99.90
64634;DHT22;51043;52.406;9.690;2022-07-04T05:04:26;17.00;99.90
64634;DHT22;51043;52.406;9.690;2022-07-04T05:06:54;17.00;99.90
64634;DHT22;51043;52.406;9.690;2022-07-04T05:09:21;17.20;99.90
64634;DHT22;51043;52.406;9.690;2022-07-04T05:11:48;17.30;99.90
64634;DHT22;51043;52.406;9.690;2022-07-04T05:14:16;17.40;99.90
64634;DHT22;51043;52.406;9.690;2022-07-04T05:16:43;17.60;99.90
64634;DHT22;51043;52.406;9.690;2022-07-04T05:19:10;17.70;99.90
64634;DHT22;51043;52.406;9.690;2022-07-04T05:21:45;17.80;99.90
64634;DHT22;51043;52.406;9.690;2022-07-04T05:24:12;17.80;99.90
64634;DHT22;51043;52.406;9.690;2022-07-04T05:26:39;17.90;99.90
64634;DHT22;51043;52.406;9.690;2022-07-04T05:29:06;18.00;99.90
64634;DHT22;51043;52.406;9.690;2022-07-04T05:31:33;18.10;99.90
64634;DHT22;51043;52.406;9.690;2022-07-04T05:34:00;18.20;99.90
64634;DHT22;51043;52.406;9.690;2022-07-04T05:36:27;18.30;99.90
64634;DHT22;51043;52.406;9.690;2022-07-04T05:38:55;18.40;99.90
64634;DHT22;51043;52.406;9.690;2022-07-04T05:41:22;18.40;99.90
64634;DHT22;51043;52.406;9.690;2022-07-04T05:43:49;18.60;99.90
64634;DHT22;51043;52.406;9.690;2022-07-04T05:46:18;18.60;99.90
64634;DHT22;51043;52.406;9.690;2022-07-04T05:48:45;18.60;99.90
64634;DHT22;51043;52.406;9.690;2022-07-04T05:51:12;18.50;99.90
64634;DHT22;51043;52.406;9.690;2022-07-04T05:53:38;18.20;99.90
64634;DHT22;51043;52.406;9.690;2022-07-04T05:56:05;18.00;99.90
64634;DHT22;51043;52.406;9.690;2022-07-04T05:58:32;17.90;99.90
64634;DHT22;51043;52.406;9.690;2022-07-04T06:00:59;17.80;99.90
64634;DHT22;51043;52.406;9.690;2022-07-04T06:03:26;17.90;99.90
64634;DHT22;51043;52.406;9.690;2022-07-04T06:05:53;17.90;99.90
64634;DHT22;51043;52.406;9.690;2022-07-04T06:08:19;18.10;99.90
64634;DHT22;51043;52.406;9.690;2022-07-04T06:10:47;18.40;99.90
64634;DHT22;51043;52.406;9.690;2022-07-04T06:13:14;18.60;99.90
64634;DHT22;51043;52.406;9.690;2022-07-04T06:15:41;18.90;99.90
64634;DHT22;51043;52.406;9.690;2022-07-04T06:18:08;19.20;99.90
64634;DHT22;51043;52.406;9.690;2022-07-04T06:20:35;19.40;99.90
64634;DHT22;51043;52.406;9.690;2022-07-04T06:23:02;19.60;99.90
64634;DHT22;51043;52.406;9.690;2022-07-04T06:25:30;19.80;99.90
64634;DHT22;51043;52.406;9.690;2022-07-04T06:27:57;20.10;99.90
64634;DHT22;51043;52.406;9.690;2022-07-04T06:30:24;20.30;99.90
64634;DHT22;51043;52.406;9.690;2022-07-04T06:32:53;20.30;99.90
64634;DHT22;51043;52.406;9.690;2022-07-04T06:35:28;20.20;99.90
64634;DHT22;51043;52.406;9.690;2022-07-04T06:38:17;20.20;99.90
64634;DHT22;51043;52.406;9.690;2022-07-04T06:40:44;20.00;99.90
64634;DHT22;51043;52.406;9.690;2022-07-04T06:43:12;20.10;99.90
64634;DHT22;51043;52.406;9.690;2022-07-04T06:45:39;20.00;99.90
64634;DHT22;51043;52.406;9.690;2022-07-04T06:48:07;20.20;99.90
64634;DHT22;51043;52.406;9.690;2022-07-04T06:50:35;20.70;99.90
64634;DHT22;51043;52.406;9.690;2022-07-04T06:53:07;21.10;99.90
64634;DHT22;51043;52.406;9.690;2022-07-04T06:55:36;21.30;99.90
64634;DHT22;51043;52.406;9.690;2022-07-04T06:58:04;20.80;99.90
64634;DHT22;51043;52.406;9.690;2022-07-04T07:00:33;20.10;99.90
64634;DHT22;51043;52.406;9.690;2022-07-04T07:03:01;20.00;99.90
64634;DHT22;51043;52.406;9.690;2022-07-04T07:05:29;20.20;99.90
64634;DHT22;51043;52.406;9.690;2022-07-04T07:08:08;20.60;99.90
64634;DHT22;51043;52.406;9.690;2022-07-04T07:10:35;21.10;99.90
64634;DHT22;51043;52.406;9.690;2022-07-04T07:13:03;21.40;99.90
64634;DHT22;51043;52.406;9.690;2022-07-04T07:15:31;21.80;99.90
64634;DHT22;51043;52.406;9.690;2022-07-04T07:18:03;22.40;99.90
64634;DHT22;51043;52.406;9.690;2022-07-04T07:20:30;22.10;99.90
64634;DHT22;51043;52.406;9.690;2022-07-04T07:22:57;21.20;99.90
64634;DHT22;51043;52.406;9.690;2022-07-04T07:25:24;20.90;99.90
64634;DHT22;51043;52.406;9.690;2022-07-04T07:27:51;20.90;99.90
64634;DHT22;51043;52.406;9.690;2022-07-04T07:30:19;21.20;99.90
64634;DHT22;51043;52.406;9.690;2022-07-04T07:32:46;21.20;99.90
64634;DHT22;51043;52.406;9.690;2022-07-04T07:35:13;21.30;99.90
64634;DHT22;51043;52.406;9.690;2022-07-04T07:37:42;21.40;99.10
64634;DHT22;51043;52.406;9.690;2022-07-04T07:40:09;21.40;98.60
64634;DHT22;51043;52.406;9.690;2022-07-04T07:42:37;21.50;97.80
64634;DHT22;51043;52.406;9.690;2022-07-04T07:45:04;21.70;97.20
64634;DHT22;51043;52.406;9.690;2022-07-04T07:47:31;21.90;95.70
64634;DHT22;51043;52.406;9.690;2022-07-04T07:50:01;22.30;95.40
64634;DHT22;51043;52.406;9.690;2022-07-04T07:52:31;22.90;91.90
64634;DHT22;51043;52.406;9.690;2022-07-04T07:54:59;23.50;90.60
64634;DHT22;51043;52.406;9.690;2022-07-04T07:57:27;24.60;86.70
64634;DHT22;51043;52.406;9.690;2022-07-04T07:59:55;25.40;80.70
64634;DHT22;51043;52.406;9.690;2022-07-04T08:02:22;25.90;80.60
64634;DHT22;51043;52.406;9.690;2022-07-04T08:05:11;26.40;71.20
64634;DHT22;51043;52.406;9.690;2022-07-04T08:07:38;26.50;69.10
64634;DHT22;51043;52.406;9.690;2022-07-04T08:10:06;26.30;63.50
64634;DHT22;51043;52.406;9.690;2022-07-04T08:12:34;25.90;65.60
64634;DHT22;51043;52.406;9.690;2022-07-04T08:15:02;26.20;63.00
64634;DHT22;51043;52.406;9.690;2022-07-04T08:17:32;26.60;63.30
64634;DHT22;51043;52.406;9.690;2022-07-04T08:19:59;27.60;59.60
64634;DHT22;51043;52.406;9.690;2022-07-04T08:22:26;28.40;57.10
64634;DHT22;51043;52.406;9.690;2022-07-04T08:24:53;27.70;56.10
64634;DHT22;51043;52.406;9.690;2022-07-04T08:27:20;25.90;56.50
64634;DHT22;51043;52.406;9.690;2022-07-04T08:29:51;25.00;59.60
64634;DHT22;51043;52.406;9.690;2022-07-04T08:32:19;25.50;61.00
64634;DHT22;51043;52.406;9.690;2022-07-04T08:34:46;25.80;59.30
64634;DHT22;51043;52.406;9.690;2022-07-04T08:37:16;26.70;56.10
64634;DHT22;51043;52.406;9.690;2022-07-04T08:39:44;27.80;52.60
64634;DHT22;51043;52.406;9.690;2022-07-04T08:42:15;28.20;50.90
64634;DHT22;51043;52.406;9.690;2022-07-04T08:44:48;28.70;49.60
64634;DHT22;51043;52.406;9.690;2022-07-04T08:47:21;28.50;50.60
64634;DHT22;51043;52.406;9.690;2022-07-04T08:50:10;29.50;47.20
64634;DHT22;51043;52.406;9.690;2022-07-04T08:52:43;30.10;46.30
64634;DHT22;51043;52.406;9.690;2022-07-04T08:55:14;29.80;44.50
64634;DHT22;51043;52.406;9.690;2022-07-04T08:58:02;28.60;45.70
64634;DHT22;51043;52.406;9.690;2022-07-04T09:00:47;28.30;46.30
64634;DHT22;51043;52.406;9.690;2022-07-04T09:03:15;28.60;46.80
64634;DHT22;51043;52.406;9.690;2022-07-04T09:05:43;29.00;46.00
64634;DHT22;51043;52.406;9.690;2022-07-04T09:08:10;29.10;44.30
64634;DHT22;51043;52.406;9.690;2022-07-04T09:10:38;29.00;43.60
64634;DHT22;51043;52.406;9.690;2022-07-04T09:13:06;29.00;44.00
64634;DHT22;51043;52.406;9.690;2022-07-04T09:15:37;29.60;43.80
64634;DHT22;51043;52.406;9.690;2022-07-04T09:18:04;29.80;43.10
64634;DHT22;51043;52.406;9.690;2022-07-04T09:20:33;29.70;42.90
64634;DHT22;51043;52.406;9.690;2022-07-04T09:23:01;30.00;42.60
64634;DHT22;51043;52.406;9.690;2022-07-04T09:25:45;28.80;44.10
64634;DHT22;51043;52.406;9.690;2022-07-04T09:28:26;27.70;45.60
64634;DHT22;51043;52.406;9.690;2022-07-04T09:30:53;26.80;48.20
64634;DHT22;51043;52.406;9.690;2022-07-04T09:33:19;27.70;46.70
64634;DHT22;51043;52.406;9.690;2022-07-04T09:35:48;28.20;45.50
64634;DHT22;51043;52.406;9.690;2022-07-04T09:38:22;29.60;44.30
64634;DHT22;51043;52.406;9.690;2022-07-04T09:40:52;31.10;40.90
64634;DHT22;51043;52.406;9.690;2022-07-04T09:44:01;31.40;38.20
64634;DHT22;51043;52.406;9.690;2022-07-04T09:46:30;31.00;39.60
64634;DHT22;51043;52.406;9.690;2022-07-04T09:48:57;31.10;38.50
64634;DHT22;51043;52.406;9.690;2022-07-04T09:51:40;30.40;41.00
64634;DHT22;51043;52.406;9.690;2022-07-04T09:56:50;29.20;41.30
64634;DHT22;51043;52.406;9.690;2022-07-04T09:59:19;28.60;41.30
64634;DHT22;51043;52.406;9.690;2022-07-04T10:01:47;28.90;41.80
64634;DHT22;51043;52.406;9.690;2022-07-04T10:04:15;29.70;39.50
64634;DHT22;51043;52.406;9.690;2022-07-04T10:06:44;30.10;38.80
64634;DHT22;51043;52.406;9.690;2022-07-04T10:09:18;30.50;37.80
64634;DHT22;51043;52.406;9.690;2022-07-04T10:11:46;31.40;37.70
64634;DHT22;51043;52.406;9.690;2022-07-04T10:14:14;31.80;36.00
64634;DHT22;51043;52.406;9.690;2022-07-04T10:16:41;30.90;36.40
64634;DHT22;51043;52.406;9.690;2022-07-04T10:19:09;30.60;37.40
64634;DHT22;51043;52.406;9.690;2022-07-04T10:21:36;30.40;38.10
64634;DHT22;51043;52.406;9.690;2022-07-04T10:24:04;31.20;40.50
64634;DHT22;51043;52.406;9.690;2022-07-04T10:26:35;32.60;35.10
64634;DHT22;51043;52.406;9.690;2022-07-04T10:29:02;32.80;33.60
64634;DHT22;51043;52.406;9.690;2022-07-04T10:31:33;32.70;34.10
64634;DHT22;51043;52.406;9.690;2022-07-04T10:34:03;32.70;32.80
64634;DHT22;51043;52.406;9.690;2022-07-04T10:36:30;32.30;32.80
64634;DHT22;51043;52.406;9.690;2022-07-04T10:39:02;31.30;33.70
64634;DHT22;51043;52.406;9.690;2022-07-04T10:41:30;31.20;34.60
64634;DHT22;51043;52.406;9.690;2022-07-04T10:44:00;31.30;34.70
64634;DHT22;51043;52.406;9.690;2022-07-04T10:46:38;32.60;37.50
64634;DHT22;51043;52.406;9.690;2022-07-04T10:54:14;33.70;32.00
64634;DHT22;51043;52.406;9.690;2022-07-04T10:56:50;33.10;31.90
64634;DHT22;51043;52.406;9.690;2022-07-04T10:59:28;33.00;33.30
64634;DHT22;51043;52.406;9.690;2022-07-04T11:10:20;34.90;30.20
64634;DHT22;51043;52.406;9.690;2022-07-04T11:17:59;34.90;29.00
64634;DHT22;51043;52.406;9.690;2022-07-04T11:20:32;33.90;30.50
64634;DHT22;51043;52.406;9.690;2022-07-04T11:23:10;33.50;31.60
64634;DHT22;51043;52.406;9.690;2022-07-04T11:25:39;33.00;31.50
64634;DHT22;51043;52.406;9.690;2022-07-04T11:28:26;32.20;32.40
64634;DHT22;51043;52.406;9.690;2022-07-04T11:31:10;31.00;34.80
64634;DHT22;51043;52.406;9.690;2022-07-04T11:33:39;31.90;33.00
64634;DHT22;51043;52.406;9.690;2022-07-04T11:36:16;31.10;34.50
64634;DHT22;51043;52.406;9.690;2022-07-04T11:38:52;29.70;35.60
64634;DHT22;51043;52.406;9.690;2022-07-04T11:41:43;29.00;38.70
64634;DHT22;51043;52.406;9.690;2022-07-04T11:44:31;30.30;35.70
64634;DHT22;51043;52.406;9.690;2022-07-04T11:47:24;31.40;33.60
64634;DHT22;51043;52.406;9.690;2022-07-04T11:49:54;30.90;34.30
64634;DHT22;51043;52.406;9.690;2022-07-04T11:52:27;30.90;34.50
64634;DHT22;51043;52.406;9.690;2022-07-04T11:55:03;31.60;33.90
64634;DHT22;51043;52.406;9.690;2022-07-04T11:57:34;31.90;33.30
64634;DHT22;51043;52.406;9.690;2022-07-04T12:00:08;31.40;35.50
64634;DHT22;51043;52.406;9.690;2022-07-04T12:03:06;32.40;33.70
64634;DHT22;51043;52.406;9.690;2022-07-04T12:05:36;33.50;30.80
64634;DHT22;51043;52.406;9.690;2022-07-04T12:08:04;33.30;31.60
64634;DHT22;51043;52.406;9.690;2022-07-04T12:10:50;32.80;30.90
64634;DHT22;51043;52.406;9.690;2022-07-04T12:13:17;31.50;32.80
64634;DHT22;51043;52.406;9.690;2022-07-04T12:15:46;31.60;34.20
64634;DHT22;51043;52.406;9.690;2022-07-04T12:18:21;33.20;31.40
64634;DHT22;51043;52.406;9.690;2022-07-04T12:20:50;33.00;31.60
64634;DHT22;51043;52.406;9.690;2022-07-04T12:23:22;31.50;33.70
64634;DHT22;51043;52.406;9.690;2022-07-04T12:25:52;29.60;36.20
64634;DHT22;51043;52.406;9.690;2022-07-04T12:28:19;28.30;38.60
64634;DHT22;51043;52.406;9.690;2022-07-04T12:30:53;28.00;40.40
64634;DHT22;51043;52.406;9.690;2022-07-04T12:33:27;29.30;38.20
64634;DHT22;51043;52.406;9.690;2022-07-04T12:36:02;31.40;36.00
64634;DHT22;51043;52.406;9.690;2022-07-04T12:41:02;33.50;31.50
64634;DHT22;51043;52.406;9.690;2022-07-04T12:46:29;34.00;32.50
64634;DHT22;51043;52.406;9.690;2022-07-04T12:48:58;34.90;30.10
64634;DHT22;51043;52.406;9.690;2022-07-04T12:51:30;34.60;30.90
64634;DHT22;51043;52.406;9.690;2022-07-04T12:53:59;34.90;31.00
64634;DHT22;51043;52.406;9.690;2022-07-04T12:56:37;35.30;29.50
64634;DHT22;51043;52.406;9.690;2022-07-04T12:59:06;34.30;29.60
64634;DHT22;51043;52.406;9.690;2022-07-04T13:01:38;33.80;32.90
64634;DHT22;51043;52.406;9.690;2022-07-04T13:04:05;34.40;29.10
64634;DHT22;51043;52.406;9.690;2022-07-04T13:06:33;35.20;29.20
64634;DHT22;51043;52.406;9.690;2022-07-04T13:09:01;35.90;28.00
64634;DHT22;51043;52.406;9.690;2022-07-04T13:11:29;36.70;27.20
64634;DHT22;51043;52.406;9.690;2022-07-04T13:14:14;35.00;28.10
64634;DHT22;51043;52.406;9.690;2022-07-04T13:16:41;32.20;31.80
64634;DHT22;51043;52.406;9.690;2022-07-04T13:19:08;31.30;34.10
64634;DHT22;51043;52.406;9.690;2022-07-04T13:21:35;32.60;31.90
64634;DHT22;51043;52.406;9.690;2022-07-04T13:24:03;32.80;32.30
64634;DHT22;51043;52.406;9.690;2022-07-04T13:26:30;33.70;30.70
64634;DHT22;51043;52.406;9.690;2022-07-04T13:28:59;34.30;29.60
64634;DHT22;51043;52.406;9.690;2022-07-04T13:31:28;34.60;30.00
64634;DHT22;51043;52.406;9.690;2022-07-04T13:33:55;35.40;28.60
64634;DHT22;51043;52.406;9.690;2022-07-04T13:36:23;35.70;27.40
64634;DHT22;51043;52.406;9.690;2022-07-04T13:38:50;34.10;27.50
64634;DHT22;51043;52.406;9.690;2022-07-04T13:41:28;33.00;29.90
64634;DHT22;51043;52.406;9.690;2022-07-04T13:43:57;32.60;29.90
64634;DHT22;51043;52.406;9.690;2022-07-04T13:46:25;32.30;29.90
64634;DHT22;51043;52.406;9.690;2022-07-04T13:48:52;32.50;28.90
64634;DHT22;51043;52.406;9.690;2022-07-04T13:51:19;32.70;30.80
64634;DHT22;51043;52.406;9.690;2022-07-04T13:53:46;32.60;29.80
64634;DHT22;51043;52.406;9.690;2022-07-04T13:56:13;33.50;30.40
64634;DHT22;51043;52.406;9.690;2022-07-04T13:58:44;34.30;28.10
64634;DHT22;51043;52.406;9.690;2022-07-04T14:01:11;33.90;28.20
64634;DHT22;51043;52.406;9.690;2022-07-04T14:03:38;34.40;27.70
64634;DHT22;51043;52.406;9.690;2022-07-04T14:06:06;35.20;27.40
64634;DHT22;51043;52.406;9.690;2022-07-04T14:08:33;35.00;28.60
64634;DHT22;51043;52.406;9.690;2022-07-04T14:11:00;35.60;25.70
64634;DHT22;51043;52.406;9.690;2022-07-04T14:13:27;35.20;26.60
64634;DHT22;51043;52.406;9.690;2022-07-04T14:15:54;33.70;28.10
64634;DHT22;51043;52.406;9.690;2022-07-04T14:18:21;32.80;29.40
64634;DHT22;51043;52.406;9.690;2022-07-04T14:20:49;32.80;28.80
64634;DHT22;51043;52.406;9.690;2022-07-04T14:23:17;33.00;28.60
64634;DHT22;51043;52.406;9.690;2022-07-04T14:26:03;32.90;28.80
64634;DHT22;51043;52.406;9.690;2022-07-04T14:28:32;32.30;29.20
64634;DHT22;51043;52.406;9.690;2022-07-04T14:30:59;31.50;31.80
64634;DHT22;51043;52.406;9.690;2022-07-04T14:33:26;30.20;32.30
64634;DHT22;51043;52.406;9.690;2022-07-04T14:35:53;29.50;35.30
64634;DHT22;51043;52.406;9.690;2022-07-04T14:38:21;28.80;35.20
64634;DHT22;51043;52.406;9.690;2022-07-04T14:40:48;28.60;36.40
64634;DHT22;51043;52.406;9.690;2022-07-04T14:43:16;29.00;35.10
64634;DHT22;51043;52.406;9.690;2022-07-04T14:45:47;29.50;34.70
64634;DHT22;51043;52.406;9.690;2022-07-04T14:48:15;30.80;33.10
64634;DHT22;51043;52.406;9.690;2022-07-04T14:50:43;32.10;30.30
64634;DHT22;51043;52.406;9.690;2022-07-04T14:53:10;32.60;29.90
64634;DHT22;51043;52.406;9.690;2022-07-04T14:59:13;32.40;30.10
64634;DHT22;51043;52.406;9.690;2022-07-04T15:01:41;33.00;29.60
64634;DHT22;51043;52.406;9.690;2022-07-04T15:04:12;33.10;29.20
64634;DHT22;51043;52.406;9.690;2022-07-04T15:06:39;33.00;29.10
64634;DHT22;51043;52.406;9.690;2022-07-04T15:09:07;32.40;31.80
64634;DHT22;51043;52.406;9.690;2022-07-04T15:11:45;31.40;31.00
64634;DHT22;51043;52.406;9.690;2022-07-04T15:14:14;29.90;33.30
64634;DHT22;51043;52.406;9.690;2022-07-04T15:16:42;29.00;34.90
64634;DHT22;51043;52.406;9.690;2022-07-04T15:19:13;28.50;36.90
64634;DHT22;51043;52.406;9.690;2022-07-04T15:21:42;28.00;37.10
64634;DHT22;51043;52.406;9.690;2022-07-04T15:24:28;27.80;37.50
64634;DHT22;51043;52.406;9.690;2022-07-04T15:26:56;27.30;38.30
64634;DHT22;51043;52.406;9.690;2022-07-04T15:29:24;27.10;38.30
64634;DHT22;51043;52.406;9.690;2022-07-04T15:32:06;27.10;38.80
64634;DHT22;51043;52.406;9.690;2022-07-04T15:34:36;27.40;41.30
64634;DHT22;51043;52.406;9.690;2022-07-04T15:37:04;27.60;38.60
64634;DHT22;51043;52.406;9.690;2022-07-04T15:39:43;27.70;38.10
64634;DHT22;51043;52.406;9.690;2022-07-04T15:42:24;27.80;38.00
64634;DHT22;51043;52.406;9.690;2022-07-04T15:44:59;27.80;38.00
64634;DHT22;51043;52.406;9.690;2022-07-04T15:47:26;27.70;37.50
64634;DHT22;51043;52.406;9.690;2022-07-04T15:50:02;27.30;38.40
64634;DHT22;51043;52.406;9.690;2022-07-04T15:53:07;27.20;38.20
64634;DHT22;51043;52.406;9.690;2022-07-04T15:55:49;27.30;38.20
64634;DHT22;51043;52.406;9.690;2022-07-04T15:58:54;27.00;39.10
64634;DHT22;51043;52.406;9.690;2022-07-04T16:01:22;26.80;40.60
64634;DHT22;51043;52.406;9.690;2022-07-04T16:04:01;26.80;39.40
64634;DHT22;51043;52.406;9.690;2022-07-04T16:06:29;26.60;39.80
64634;DHT22;51043;52.406;9.690;2022-07-04T16:09:03;27.00;39.50
64634;DHT22;51043;52.406;9.690;2022-07-04T16:11:31;28.00;37.90
64634;DHT22;51043;52.406;9.690;2022-07-04T16:14:12;29.10;37.00
64634;DHT22;51043;52.406;9.690;2022-07-04T16:16:39;30.30;33.70